Grand Mercury — HOOC — position and weather

sailwx.info

Track history (hours):
 
Tides and Currents Weather Stations Pressure Air Temp Water Temp Dewpoint Dewpoint Depression Visibility Wind Speed Wind Dir Waves Ship Positions

Grand Mercury

Last reported at 2017-Oct-27 05:47 UTC. Time now 2017-Nov-18 12:28 UTC.
Position N 39°40' W 073°02'.
Warning: this ship's position is 22 days out of date.

Length 200 m; draft 8.6 m.

Type: Cargo ship. MMSI: 355649000.

Date/timePositionNaut miles runAvg speedWind from/ knotsBaromVisibWave heightAir tempDewpointWater temp
2017-Oct-27 05:47N 39°40' W 073°02'518.5
2017-Oct-27 05:29N 39°44' W 073°06'1318.5
2017-Oct-27 04:47N 39°55' W 073°16'1218.5
2017-Oct-27 04:10N 40°04' W 073°26'618.5
2017-Oct-27 03:49N 40°09' W 073°31'918.4
2017-Oct-27 03:21N 40°16' W 073°38'718.1
2017-Oct-27 02:57N 40°21' W 073°44'614.3
2017-Oct-27 02:30N 40°26' W 073°49'714.9
2017-Oct-27 02:00N 40°30' W 073°57'815.8
2017-Oct-27 01:30N 40°37' W 074°03'5 5.4
2017-Oct-27 00:30N 40°40' W 074°08'1 2.6
2017-Oct-27 00:00N 40°41' W 074°08'0 0.0
2017-Oct-26 23:30N 40°41' W 074°08'0 0.0
2017-Oct-26 23:00N 40°41' W 074°08'0 0.0
2017-Oct-26 22:30N 40°41' W 074°08'0 0.0
2017-Oct-26 22:00N 40°41' W 074°08'0 0.0
2017-Oct-26 21:30N 40°41' W 074°08'0 0.0
2017-Oct-26 20:00N 40°41' W 074°08'0 0.0
2017-Oct-26 19:21N 40°41' W 074°08'0 0.0
2017-Oct-26 19:00N 40°41' W 074°08'0 0.0
2017-Oct-26 18:27N 40°41' W 074°08'0 0.0
2017-Oct-26 17:57N 40°41' W 074°08'0 0.0
2017-Oct-26 17:09N 40°41' W 074°08'0 0.0
2017-Oct-26 16:45N 40°41' W 074°08'0 0.0
2017-Oct-26 16:21N 40°41' W 074°08'0 0.0
2017-Oct-26 15:57N 40°41' W 074°08'0 0.0
2017-Oct-26 15:18N 40°41' W 074°08'0 0.0
2017-Oct-26 14:57N 40°41' W 074°08'0 0.0
2017-Oct-26 14:30N 40°41' W 074°08'0 0.0
2017-Oct-26 13:51N 40°41' W 074°08'0 0.0
2017-Oct-26 13:24N 40°41' W 074°08'0 0.0
2017-Oct-26 13:00N 40°41' W 074°08'0 0.0
2017-Oct-26 11:51N 40°41' W 074°08'0 0.0
2017-Oct-26 11:27N 40°41' W 074°08'0 0.0
2017-Oct-26 10:57N 40°41' W 074°08'0 0.0
2017-Oct-26 10:21N 40°41' W 074°08'0 0.0
2017-Oct-26 09:57N 40°41' W 074°08'0 0.0
2017-Oct-26 09:27N 40°41' W 074°08'0 0.0
2017-Oct-26 09:00N 40°41' W 074°08'0 0.0
2017-Oct-26 08:27N 40°41' W 074°08'0 0.0
2017-Oct-26 08:00N 40°41' W 074°08'0 0.0
2017-Oct-26 07:27N 40°41' W 074°08'0 0.0
2017-Oct-26 07:00N 40°41' W 074°08'0 0.0
2017-Oct-26 06:27N 40°41' W 074°08'0 0.0
2017-Oct-26 05:54N 40°41' W 074°08'0 0.0
2017-Oct-26 05:21N 40°41' W 074°08'0 0.0
2017-Oct-26 04:54N 40°41' W 074°08'0 0.0
2017-Oct-26 04:30N 40°41' W 074°08'0 0.0
2017-Oct-26 03:57N 40°41' W 074°08'0 0.0
2017-Oct-26 03:27N 40°41' W 074°08'0 0.0
2017-Oct-26 03:00N 40°41' W 074°08'0 0.0
2017-Oct-26 02:30N 40°41' W 074°08'0 0.0
2017-Oct-26 01:57N 40°41' W 074°08'0 0.0
2017-Oct-26 01:30N 40°41' W 074°08'0 0.0
2017-Oct-26 01:00N 40°41' W 074°08'0 0.0
2017-Oct-26 00:27N 40°41' W 074°08'0 0.0
2017-Oct-26 00:00N 40°41' W 074°08'1 2.5
2017-Oct-25 23:30N 40°40' W 074°08'2 3.3
2017-Oct-25 23:00N 40°39' W 074°07'3 6.5
2017-Oct-25 22:30N 40°38' W 074°03'510.1
2017-Oct-25 22:00N 40°33' W 074°02'612.4
2017-Oct-25 21:30N 40°29' W 073°55'611.2
2017-Oct-25 20:59N 40°27' W 073°48'3 6.5
2017-Oct-25 20:29N 40°24' W 073°47'4 7.2
2017-Oct-25 20:00N 40°21' W 073°46'5 8.6
2017-Oct-25 19:28N 40°16' W 073°46'5 9.8
2017-Oct-25 19:00N 40°12' W 073°45'3110.5
2017-Oct-25 16:05N 39°41' W 073°43'316.6
2017-Oct-25 15:55N 39°39' W 073°44'717.1
2017-Oct-25 15:31N 39°32' W 073°48'4116.8
2017-Oct-25 13:04N 38°53' W 074°01'616.8
2017-Oct-25 12:44N 38°47' W 074°02'416.6
2017-Oct-25 12:30N 38°43' W 074°03'916.6
2017-Oct-25 11:58N 38°34' W 074°05'816.6
2017-Oct-25 11:30N 38°27' W 074°05'816.5
2017-Oct-25 11:00N 38°19' W 074°07'816.3
2017-Oct-25 10:30N 38°10' W 074°09'  
Track history (hours):
 
Tides and Currents Weather Stations Pressure Air Temp Water Temp Dewpoint Dewpoint Depression Visibility Wind Speed Wind Dir Waves Ship Positions

Grand Mercury

Last reported at 2017-Oct-27 05:47 UTC. Time now 2017-Nov-18 12:28 UTC.
Position N 39°40' W 073°02'.
Warning: this ship's position is 22 days out of date.

Length 200 m; draft 8.6 m.

Type: Cargo ship. MMSI: 355649000.

Date/timePositionNaut miles runAvg speedWind from/ knotsBaromVisibWave heightAir tempDewpointWater temp
2017-Oct-27 05:47N 39°40' W 073°02'518.5
2017-Oct-27 05:29N 39°44' W 073°06'1318.5
2017-Oct-27 04:47N 39°55' W 073°16'1218.5
2017-Oct-27 04:10N 40°04' W 073°26'618.5
2017-Oct-27 03:49N 40°09' W 073°31'918.4
2017-Oct-27 03:21N 40°16' W 073°38'718.1
2017-Oct-27 02:57N 40°21' W 073°44'614.3
2017-Oct-27 02:30N 40°26' W 073°49'714.9
2017-Oct-27 02:00N 40°30' W 073°57'815.8
2017-Oct-27 01:30N 40°37' W 074°03'5 5.4
2017-Oct-27 00:30N 40°40' W 074°08'1 2.6
2017-Oct-27 00:00N 40°41' W 074°08'0 0.0
2017-Oct-26 23:30N 40°41' W 074°08'0 0.0
2017-Oct-26 23:00N 40°41' W 074°08'0 0.0
2017-Oct-26 22:30N 40°41' W 074°08'0 0.0
2017-Oct-26 22:00N 40°41' W 074°08'0 0.0
2017-Oct-26 21:30N 40°41' W 074°08'0 0.0
2017-Oct-26 20:00N 40°41' W 074°08'0 0.0
2017-Oct-26 19:21N 40°41' W 074°08'0 0.0
2017-Oct-26 19:00N 40°41' W 074°08'0 0.0
2017-Oct-26 18:27N 40°41' W 074°08'0 0.0
2017-Oct-26 17:57N 40°41' W 074°08'0 0.0
2017-Oct-26 17:09N 40°41' W 074°08'0 0.0
2017-Oct-26 16:45N 40°41' W 074°08'0 0.0
2017-Oct-26 16:21N 40°41' W 074°08'0 0.0
2017-Oct-26 15:57N 40°41' W 074°08'0 0.0
2017-Oct-26 15:18N 40°41' W 074°08'0 0.0
2017-Oct-26 14:57N 40°41' W 074°08'0 0.0
2017-Oct-26 14:30N 40°41' W 074°08'0 0.0
2017-Oct-26 13:51N 40°41' W 074°08'0 0.0
2017-Oct-26 13:24N 40°41' W 074°08'0 0.0
2017-Oct-26 13:00N 40°41' W 074°08'0 0.0
2017-Oct-26 11:51N 40°41' W 074°08'0 0.0
2017-Oct-26 11:27N 40°41' W 074°08'0 0.0
2017-Oct-26 10:57N 40°41' W 074°08'0 0.0
2017-Oct-26 10:21N 40°41' W 074°08'0 0.0
2017-Oct-26 09:57N 40°41' W 074°08'0 0.0
2017-Oct-26 09:27N 40°41' W 074°08'0 0.0
2017-Oct-26 09:00N 40°41' W 074°08'0 0.0
2017-Oct-26 08:27N 40°41' W 074°08'0 0.0
2017-Oct-26 08:00N 40°41' W 074°08'0 0.0
2017-Oct-26 07:27N 40°41' W 074°08'0 0.0
2017-Oct-26 07:00N 40°41' W 074°08'0 0.0
2017-Oct-26 06:27N 40°41' W 074°08'0 0.0
2017-Oct-26 05:54N 40°41' W 074°08'0 0.0
2017-Oct-26 05:21N 40°41' W 074°08'0 0.0
2017-Oct-26 04:54N 40°41' W 074°08'0 0.0
2017-Oct-26 04:30N 40°41' W 074°08'0 0.0
2017-Oct-26 03:57N 40°41' W 074°08'0 0.0
2017-Oct-26 03:27N 40°41' W 074°08'0 0.0
2017-Oct-26 03:00N 40°41' W 074°08'0 0.0
2017-Oct-26 02:30N 40°41' W 074°08'0 0.0
2017-Oct-26 01:57N 40°41' W 074°08'0 0.0
2017-Oct-26 01:30N 40°41' W 074°08'0 0.0
2017-Oct-26 01:00N 40°41' W 074°08'0 0.0
2017-Oct-26 00:27N 40°41' W 074°08'0 0.0
2017-Oct-26 00:00N 40°41' W 074°08'1 2.5
2017-Oct-25 23:30N 40°40' W 074°08'2 3.3
2017-Oct-25 23:00N 40°39' W 074°07'3 6.5
2017-Oct-25 22:30N 40°38' W 074°03'510.1
2017-Oct-25 22:00N 40°33' W 074°02'612.4
2017-Oct-25 21:30N 40°29' W 073°55'611.2
2017-Oct-25 20:59N 40°27' W 073°48'3 6.5
2017-Oct-25 20:29N 40°24' W 073°47'4 7.2
2017-Oct-25 20:00N 40°21' W 073°46'5 8.6
2017-Oct-25 19:28N 40°16' W 073°46'5 9.8
2017-Oct-25 19:00N 40°12' W 073°45'3110.5
2017-Oct-25 16:05N 39°41' W 073°43'316.6
2017-Oct-25 15:55N 39°39' W 073°44'717.1
2017-Oct-25 15:31N 39°32' W 073°48'4116.8
2017-Oct-25 13:04N 38°53' W 074°01'616.8
2017-Oct-25 12:44N 38°47' W 074°02'416.6
2017-Oct-25 12:30N 38°43' W 074°03'916.6
2017-Oct-25 11:58N 38°34' W 074°05'816.6
2017-Oct-25 11:30N 38°27' W 074°05'816.5
2017-Oct-25 11:00N 38°19' W 074°07'816.3
2017-Oct-25 10:30N 38°10' W 074°09'  

Dump ship's entire track history